Time;durP1;ratioP1;P1;durP2;ratioP2;P2;SDS_P1;SDS_P2;PMS_P1;PMS_P2;Temp;Humidity;BMP_temperature;BMP_pressure;BME280_temperature;BME280_humidity;BME280_pressure;Samples;Min_cycle;Max_cycle;Signal;HPM_P1;HPM_P2
2023/10/26 00:00:59;;;;;;;49.08;9.35;;;;;;;15.33;72.89;93048.53;4998050;28;20026;-76
2023/10/26 00:03:24;;;;;;;29.58;7.97;;;;;;;15.46;72.36;93061.38;4994576;28;20065;-76
2023/10/26 00:05:49;;;;;;;36.42;8.13;;;;;;;15.50;71.36;93058.00;4996431;28;20500;-77
2023/10/26 00:08:15;;;;;;;37.30;8.68;;;;;;;15.58;71.50;93063.09;4995648;28;20045;-75
2023/10/26 00:10:40;;;;;;;29.98;8.70;;;;;;;15.61;70.50;93058.91;4996593;28;20045;-76
2023/10/26 00:13:06;;;;;;;34.92;9.15;;;;;;;14.45;75.36;93056.63;4991510;28;20030;-75
2023/10/26 00:15:32;;;;;;;37.20;10.30;;;;;;;14.79;74.23;93081.72;4994778;28;20527;-76
2023/10/26 00:17:57;;;;;;;27.48;8.45;;;;;;;14.84;73.93;93053.88;4996665;28;20050;-76
2023/10/26 00:20:22;;;;;;;32.38;7.78;;;;;;;14.31;75.11;93020.81;4998412;28;20029;-76
2023/10/26 00:22:48;;;;;;;39.42;9.68;;;;;;;14.69;73.73;93022.66;4995244;28;20085;-76
2023/10/26 00:25:13;;;;;;;29.60;8.57;;;;;;;15.00;72.53;93038.47;5011670;28;20057;-75
2023/10/26 00:27:42;;;;;;;27.95;9.10;;;;;;;14.52;74.96;93029.25;4994792;28;20053;-76
2023/10/26 00:30:10;;;;;;;30.95;8.27;;;;;;;14.86;74.02;93040.91;4996878;28;20030;-76
2023/10/26 00:32:35;;;;;;;22.80;5.85;;;;;;;14.78;73.18;93026.63;5009330;28;20080;-76
2023/10/26 00:35:00;;;;;;;27.92;6.78;;;;;;;14.79;74.17;93044.25;4993898;28;20034;-76
2023/10/26 00:37:26;;;;;;;32.55;8.32;;;;;;;14.87;73.17;93045.13;4998047;28;20111;-77
2023/10/26 00:39:51;;;;;;;28.33;7.57;;;;;;;14.88;72.77;93019.91;4993083;28;20599;-75
2023/10/26 00:42:17;;;;;;;32.17;8.38;;;;;;;14.93;71.96;93047.16;4997532;28;20046;-77
2023/10/26 00:44:46;;;;;;;26.15;7.68;;;;;;;14.70;73.63;93046.41;4995559;28;20408;-75
2023/10/26 00:47:11;;;;;;;27.23;5.38;;;;;;;13.93;74.32;93032.34;4995597;28;20416;-76
2023/10/26 00:49:40;;;;;;;25.58;5.60;;;;;;;14.05;74.90;93024.94;4988807;28;20497;-76
2023/10/26 00:52:07;;;;;;;27.85;5.63;;;;;;;14.48;73.79;93029.16;4996268;28;20065;-76
2023/10/26 00:54:34;;;;;;;30.38;6.30;;;;;;;14.45;74.94;93053.94;4993673;28;20033;-76
2023/10/26 00:57:01;;;;;;;22.90;6.50;;;;;;;14.17;75.21;93019.44;4996472;28;20046;-75
2023/10/26 00:59:28;;;;;;;26.45;6.13;;;;;;;14.06;76.13;93021.16;5011930;28;20026;-76
2023/10/26 01:01:55;;;;;;;35.53;6.25;;;;;;;14.55;74.09;93053.41;4996110;28;20025;-77
2023/10/26 01:04:20;;;;;;;27.35;5.97;;;;;;;14.38;73.76;92992.28;4996692;28;20556;-76
2023/10/26 01:06:46;;;;;;;28.90;6.45;;;;;;;14.73;73.13;93040.31;4994749;28;20052;-75
2023/10/26 01:09:11;;;;;;;27.58;5.30;;;;;;;14.88;72.12;93038.66;4994211;28;20030;-76
2023/10/26 01:11:39;;;;;;;28.08;5.93;;;;;;;14.88;71.90;93041.31;4996475;28;20069;-75
2023/10/26 01:14:06;;;;;;;33.60;5.97;;;;;;;14.45;74.16;93024.53;4995283;28;20033;-76
2023/10/26 01:16:31;;;;;;;31.55;6.75;;;;;;;14.64;73.71;93039.78;5008439;28;20055;-75
2023/10/26 01:19:01;;;;;;;27.10;7.78;;;;;;;14.69;73.12;93018.06;5003455;28;20029;-76
2023/10/26 01:21:30;;;;;;;24.60;6.30;;;;;;;14.88;72.01;93030.63;5018993;28;20049;-76
2023/10/26 01:23:57;;;;;;;25.13;7.70;;;;;;;14.92;71.78;93042.91;5018717;28;20030;-75
2023/10/26 01:26:23;;;;;;;21.83;5.72;;;;;;;14.94;71.62;93047.94;5002451;28;20525;-76
2023/10/26 01:28:48;;;;;;;29.15;7.35;;;;;;;14.09;74.43;93004.38;5019713;28;20031;-76
2023/10/26 01:31:18;;;;;;;26.98;6.93;;;;;;;14.18;75.07;93025.53;5020748;28;20025;-76
2023/10/26 01:33:46;;;;;;;26.92;6.40;;;;;;;14.46;73.72;93052.84;5019023;28;20483;-75
2023/10/26 01:36:11;;;;;;;32.10;7.47;;;;;;;14.50;73.39;93042.97;5016664;28;20041;-76
2023/10/26 01:38:37;;;;;;;27.58;7.32;;;;;;;14.40;73.75;93024.81;5018669;28;20049;-75
2023/10/26 01:41:04;;;;;;;24.17;7.03;;;;;;;14.75;72.05;93050.66;5020257;28;20033;-76
2023/10/26 01:43:30;;;;;;;30.63;7.63;;;;;;;14.72;72.20;93054.81;5012020;28;20030;-76
2023/10/26 01:45:55;;;;;;;19.73;7.03;;;;;;;14.42;72.18;93022.53;5020957;28;20041;-75
2023/10/26 01:48:23;;;;;;;21.45;6.57;;;;;;;14.00;74.14;92992.38;5016838;28;20041;-76
2023/10/26 01:50:51;;;;;;;15.55;5.40;;;;;;;13.93;74.18;93029.66;5019821;28;20049;-76
2023/10/26 01:53:17;;;;;;;26.75;5.93;;;;;;;14.13;72.70;93017.84;5001106;28;20125;-76
2023/10/26 01:55:42;;;;;;;19.50;6.15;;;;;;;13.76;73.64;93014.81;5003684;28;20445;-76
2023/10/26 01:58:07;;;;;;;24.02;4.22;;;;;;;13.91;74.20;93022.00;5012608;28;20033;-75
2023/10/26 02:00:33;;;;;;;21.17;6.13;;;;;;;14.15;73.56;93035.06;5019773;28;20684;-76
2023/10/26 02:02:58;;;;;;;18.85;5.40;;;;;;;14.21;73.49;93040.13;5018954;28;20468;-76
2023/10/26 02:05:24;;;;;;;26.15;5.88;;;;;;;14.25;73.51;93015.00;5018228;28;20048;-76
2023/10/26 02:07:50;;;;;;;19.30;4.28;;;;;;;14.37;72.71;93028.22;5016006;28;20029;-77
2023/10/26 02:10:18;;;;;;;20.35;4.95;;;;;;;14.68;71.15;93039.84;5021018;28;20041;-75
2023/10/26 02:12:43;;;;;;;24.95;5.00;;;;;;;14.38;72.06;93018.25;4998861;28;20033;-75
2023/10/26 02:15:09;;;;;;;13.32;3.95;;;;;;;14.50;71.71;93018.09;5002001;28;20096;-75
2023/10/26 02:17:34;;;;;;;16.27;4.68;;;;;;;14.71;70.99;93068.59;5017238;28;20087;-75
2023/10/26 02:20:00;;;;;;;17.33;6.10;;;;;;;13.98;73.38;92978.59;5018913;28;20104;-74
2023/10/26 02:22:25;;;;;;;15.98;4.38;;;;;;;13.90;73.94;93030.34;5015908;28;20029;-74
2023/10/26 02:24:51;;;;;;;20.88;5.93;;;;;;;13.98;74.03;93010.66;5017271;28;20638;-75
2023/10/26 02:27:16;;;;;;;15.35;4.80;;;;;;;14.01;73.51;93012.63;5017476;28;20037;-75
2023/10/26 02:29:41;;;;;;;21.00;5.53;;;;;;;13.88;74.35;93006.66;5016896;28;20036;-76
2023/10/26 02:32:07;;;;;;;19.75;4.80;;;;;;;13.96;73.48;92996.88;5018074;28;20040;-75
2023/10/26 02:34:32;;;;;;;19.95;4.13;;;;;;;14.14;73.90;93033.50;5001544;28;20071;-75
2023/10/26 02:36:59;;;;;;;16.65;5.45;;;;;;;14.25;72.81;93020.34;5000417;28;20475;-75
2023/10/26 02:39:25;;;;;;;17.23;4.65;;;;;;;14.19;72.77;93016.41;5000546;28;20079;-75
2023/10/26 02:41:51;;;;;;;21.80;5.07;;;;;;;14.41;72.07;93028.28;5015895;28;20042;-75
2023/10/26 02:44:16;;;;;;;12.88;3.72;;;;;;;14.19;72.83;93016.41;5019091;28;20408;-75
2023/10/26 02:46:42;;;;;;;20.27;4.82;;;;;;;14.41;72.24;93018.34;5017867;28;20060;-76
2023/10/26 02:49:07;;;;;;;18.63;4.93;;;;;;;14.41;71.86;93018.34;5018944;28;20060;-76
2023/10/26 02:51:32;;;;;;;21.67;4.57;;;;;;;14.64;71.13;93017.59;5017135;28;20044;-76
2023/10/26 02:53:58;;;;;;;13.13;4.03;;;;;;;14.35;70.92;92979.63;5018665;28;20415;-75
2023/10/26 02:56:23;;;;;;;18.83;4.13;;;;;;;14.76;70.40;93022.78;5001408;28;20034;-75
2023/10/26 02:58:49;;;;;;;16.67;6.05;;;;;;;14.75;70.31;93016.66;5017898;28;20112;-75
2023/10/26 03:01:14;;;;;;;16.83;5.80;;;;;;;14.76;69.44;93030.81;5017685;28;20044;-76
2023/10/26 03:03:40;;;;;;;18.63;4.30;;;;;;;14.93;69.29;93033.00;5016032;28;20030;-75
2023/10/26 03:06:05;;;;;;;16.98;4.28;;;;;;;15.01;68.35;93040.00;5015800;28;20164;-76
2023/10/26 03:08:31;;;;;;;14.35;4.45;;;;;;;15.00;68.84;93039.25;5001007;28;20462;-75
2023/10/26 03:10:56;;;;;;;14.55;4.13;;;;;;;15.00;69.02;93033.88;5001875;28;20148;-74
2023/10/26 03:13:21;;;;;;;16.40;6.32;;;;;;;15.11;67.90;93055.44;5002739;28;20018;-75
2023/10/26 03:15:47;;;;;;;21.60;4.25;;;;;;;14.60;69.95;93021.00;5014414;28;20559;-78
2023/10/26 03:18:12;;;;;;;7.90;3.28;;;;;;;14.76;69.53;93041.53;5018258;28;20064;-78
2023/10/26 03:20:37;;;;;;;17.45;4.00;;;;;;;14.73;69.41;93034.19;5015385;28;20820;-77
2023/10/26 03:23:03;;;;;;;13.38;4.53;;;;;;;14.74;69.65;93036.50;5017044;28;20404;-78
2023/10/26 03:25:28;;;;;;;17.83;4.53;;;;;;;14.83;69.01;93038.94;5015729;28;22164;-77
2023/10/26 03:27:53;;;;;;;13.95;3.75;;;;;;;14.66;69.24;93018.81;5017755;28;20033;-76
2023/10/26 03:30:20;;;;;;;13.23;4.18;;;;;;;14.73;69.07;93013.56;4997276;28;20132;-77
2023/10/26 03:32:45;;;;;;;15.90;4.05;;;;;;;14.83;68.42;93030.91;5016133;28;20036;-77
2023/10/26 03:35:11;;;;;;;14.77;3.85;;;;;;;14.76;68.98;93020.09;5016036;28;20045;-77
2023/10/26 03:37:37;;;;;;;14.63;4.03;;;;;;;14.73;68.48;93013.56;5019048;28;20032;-76
2023/10/26 03:40:06;;;;;;;19.20;5.13;;;;;;;14.82;68.82;93016.75;5016440;28;20626;-77
2023/10/26 03:42:32;;;;;;;17.00;4.80;;;;;;;14.78;68.50;93015.94;5017557;28;20037;-77
2023/10/26 03:44:57;;;;;;;15.65;4.57;;;;;;;14.91;67.76;93011.19;4995126;28;20034;-78
2023/10/26 03:47:23;;;;;;;16.45;5.82;;;;;;;14.81;68.09;93003.75;5000983;28;20484;-77
2023/10/26 03:49:52;;;;;;;17.67;6.55;;;;;;;14.69;68.68;92999.34;5015417;28;20037;-77
2023/10/26 03:52:19;;;;;;;11.38;3.83;;;;;;;14.64;68.47;92982.81;5017827;28;20045;-77
2023/10/26 03:54:45;;;;;;;15.43;4.50;;;;;;;14.77;68.43;92992.19;4996809;28;20200;-77
2023/10/26 03:57:10;;;;;;;11.65;4.00;;;;;;;14.63;68.07;92960.63;5014605;28;20037;-77
2023/10/26 03:59:35;;;;;;;20.05;5.10;;;;;;;14.84;67.80;92995.00;5016560;28;20095;-75
2023/10/26 04:02:01;;;;;;;16.98;5.15;;;;;;;14.77;67.64;92981.47;5015523;28;20500;-75
2023/10/26 04:04:26;;;;;;;16.33;4.05;;;;;;;14.71;68.57;92990.97;4998528;28;20052;-77
2023/10/26 04:06:51;;;;;;;13.65;3.50;;;;;;;14.82;67.94;92991.88;5016300;28;20033;-77
2023/10/26 04:09:17;;;;;;;22.35;4.93;;;;;;;14.68;68.36;92981.75;5014240;28;20123;-78
2023/10/26 04:11:44;;;;;;;31.50;5.57;;;;;;;14.66;68.32;92983.25;5016220;28;20538;-78
2023/10/26 04:14:10;;;;;;;16.77;4.15;;;;;;;14.53;69.22;92994.09;4999921;28;20508;-77
2023/10/26 04:16:35;;;;;;;13.07;4.57;;;;;;;14.59;68.76;92991.91;5015728;28;20510;-78
2023/10/26 04:19:01;;;;;;;18.73;4.57;;;;;;;14.68;67.78;92994.34;5016899;28;20504;-77
2023/10/26 04:21:26;;;;;;;12.65;4.75;;;;;;;14.63;68.59;92991.97;5014813;28;20491;-79
2023/10/26 04:23:51;;;;;;;11.50;3.95;;;;;;;14.22;70.06;92970.25;5016533;28;20080;-77
2023/10/26 04:26:17;;;;;;;20.75;4.22;;;;;;;14.49;69.51;92993.25;4999188;28;20535;-76
2023/10/26 04:28:43;;;;;;;12.52;3.65;;;;;;;14.61;69.17;93003.03;5017104;28;20710;-77
2023/10/26 04:31:08;;;;;;;12.02;2.85;;;;;;;14.72;68.04;93003.97;5016983;28;20186;-77
2023/10/26 04:33:34;;;;;;;17.48;4.05;;;;;;;14.41;69.28;92991.59;5015559;28;20109;-78
2023/10/26 04:36:00;;;;;;;21.20;4.20;;;;;;;14.17;70.18;92982.00;5012945;28;20065;-77
2023/10/26 04:38:26;;;;;;;15.88;3.70;;;;;;;14.02;71.75;92984.78;4992653;28;20614;-77
2023/10/26 04:40:52;;;;;;;10.90;3.45;;;;;;;14.06;71.37;92990.97;5014083;28;20041;-77
2023/10/26 04:43:18;;;;;;;13.82;4.38;;;;;;;14.00;71.70;92989.69;4996977;28;20025;-76
2023/10/26 04:45:43;;;;;;;17.35;3.65;;;;;;;14.05;71.49;92984.84;4997576;28;20048;-77
2023/10/26 04:48:08;;;;;;;11.93;3.63;;;;;;;14.21;71.46;93006.13;4995277;28;20331;-77
2023/10/26 04:50:34;;;;;;;18.17;4.13;;;;;;;14.32;70.63;92977.69;5015655;28;20140;-77
2023/10/26 04:53:02;;;;;;;21.40;4.32;;;;;;;14.09;71.53;92996.34;5003860;28;20080;-77
2023/10/26 04:55:33;;;;;;;12.43;4.05;;;;;;;14.26;70.72;92994.38;5000343;28;20717;-77
2023/10/26 04:58:00;;;;;;;13.63;3.75;;;;;;;14.31;70.69;93002.88;5019169;28;20470;-77
2023/10/26 05:00:29;;;;;;;20.98;5.07;;;;;;;14.39;69.93;93001.09;4999418;28;20053;-78
2023/10/26 05:02:54;;;;;;;10.50;3.85;;;;;;;14.39;69.99;93009.88;5005162;28;20049;-77
2023/10/26 05:05:20;;;;;;;14.63;3.97;;;;;;;14.45;69.55;93000.44;5019035;28;20357;-76
2023/10/26 05:07:45;;;;;;;10.75;3.65;;;;;;;14.58;68.58;93011.75;4998339;28;20072;-77
2023/10/26 05:10:12;;;;;;;14.98;3.63;;;;;;;14.60;68.41;93002.28;5018790;28;20049;-77
2023/10/26 05:12:37;;;;;;;12.57;4.35;;;;;;;14.62;68.38;93001.16;5018222;28;20038;-77
2023/10/26 05:15:03;;;;;;;17.48;3.72;;;;;;;14.67;68.45;93016.91;5010148;28;20499;-78
2023/10/26 05:17:29;;;;;;;17.83;3.25;;;;;;;14.64;68.21;93004.22;5016270;28;20514;-77
2023/10/26 05:19:55;;;;;;;12.75;3.60;;;;;;;14.54;67.81;93003.69;5018002;28;20543;-76
2023/10/26 05:22:20;;;;;;;10.65;3.50;;;;;;;14.72;68.26;93038.00;5018809;28;20025;-78
2023/10/26 05:24:46;;;;;;;11.60;2.65;;;;;;;14.63;68.96;93034.78;5018250;28;20115;-78
2023/10/26 05:27:12;;;;;;;16.15;3.67;;;;;;;14.59;68.82;93027.47;5015592;28;20581;-77
2023/10/26 05:29:37;;;;;;;17.13;3.92;;;;;;;14.67;68.91;93035.63;5017661;28;20065;-78
2023/10/26 05:32:04;;;;;;;15.88;3.85;;;;;;;14.68;68.90;93039.84;5002089;28;20379;-76
2023/10/26 05:34:30;;;;;;;10.55;3.65;;;;;;;14.68;68.80;93031.81;5017579;28;20017;-77
2023/10/26 05:36:55;;;;;;;14.02;4.57;;;;;;;14.71;69.11;93044.50;5015757;28;20292;-76
2023/10/26 05:39:21;;;;;;;13.98;3.33;;;;;;;14.75;68.92;93037.28;5012716;28;20690;-77
2023/10/26 05:41:46;;;;;;;11.90;4.35;;;;;;;14.78;69.35;93023.19;5015972;28;20068;-76
2023/10/26 05:44:12;;;;;;;14.40;3.75;;;;;;;14.91;68.72;93041.38;5015542;28;20682;-77
2023/10/26 05:46:37;;;;;;;22.10;4.43;;;;;;;14.72;70.31;93036.09;5013231;28;20052;-76
2023/10/26 05:49:03;;;;;;;11.10;2.88;;;;;;;14.86;69.54;93046.28;5018489;28;20128;-76
2023/10/26 05:51:29;;;;;;;15.35;3.78;;;;;;;14.81;70.17;93046.56;5016605;28;20124;-76
2023/10/26 05:53:55;;;;;;;20.33;5.03;;;;;;;14.47;70.79;93049.00;4998949;28;20092;-76
2023/10/26 05:56:21;;;;;;;17.17;3.83;;;;;;;14.16;71.50;93028.59;5004386;28;20073;-77
2023/10/26 05:58:49;;;;;;;12.50;3.72;;;;;;;14.64;70.97;93079.16;5019546;28;20029;-77
2023/10/26 06:01:16;;;;;;;13.63;3.47;;;;;;;14.80;70.88;93082.50;5020955;28;20035;-76
2023/10/26 06:03:43;;;;;;;18.27;4.63;;;;;;;14.86;70.46;93076.47;5015203;28;20125;-76
2023/10/26 06:06:08;;;;;;;9.25;4.13;;;;;;;14.98;70.29;93083.56;5019014;28;20034;-77
2023/10/26 06:08:34;;;;;;;12.02;4.00;;;;;;;15.03;69.99;93080.59;5017338;28;20107;-77
2023/10/26 06:11:00;;;;;;;15.73;3.95;;;;;;;15.10;69.98;93083.38;5022733;28;20064;-77
2023/10/26 06:13:26;;;;;;;14.63;3.40;;;;;;;15.23;68.87;93094.69;5023797;28;20415;-78
2023/10/26 06:15:57;;;;;;;20.75;3.70;;;;;;;15.13;69.36;93084.56;5018262;28;20053;-77
2023/10/26 06:18:24;;;;;;;19.48;4.07;;;;;;;15.09;69.56;93073.81;5009762;28;20404;-77
2023/10/26 06:21:13;;;;;;;18.40;5.35;;;;;;;15.24;68.40;93078.25;5005707;28;20444;-75
2023/10/26 06:23:38;;;;;;;14.05;3.33;;;;;;;15.15;68.87;93071.59;4987403;28;20041;-77
2023/10/26 06:26:04;;;;;;;15.30;4.80;;;;;;;15.15;69.11;93082.31;4991979;28;20043;-77
2023/10/26 06:28:30;;;;;;;12.65;4.38;;;;;;;15.07;69.08;93060.00;5005052;28;20029;-77
2023/10/26 06:30:56;;;;;;;10.55;3.15;;;;;;;15.30;68.78;93079.47;4985639;28;20136;-77
2023/10/26 06:33:23;;;;;;;22.30;4.45;;;;;;;15.35;68.54;93081.84;5006124;28;20037;-76
2023/10/26 06:35:49;;;;;;;23.73;4.07;;;;;;;15.39;68.40;93081.91;4989018;28;20052;-76
2023/10/26 06:38:15;;;;;;;16.75;4.95;;;;;;;15.44;68.34;93089.69;5006147;28;20046;-77
2023/10/26 06:40:44;;;;;;;18.83;4.53;;;;;;;15.33;68.44;93086.81;5005908;28;20638;-78
2023/10/26 06:43:09;;;;;;;36.15;5.35;;;;;;;15.32;68.41;93081.81;4988838;28;20060;-77
2023/10/26 06:45:35;;;;;;;16.75;4.38;;;;;;;15.42;68.15;93087.31;4979235;28;20587;-77
2023/10/26 06:48:00;;;;;;;16.65;4.65;;;;;;;15.32;68.75;93055.00;4991656;28;20766;-77
2023/10/26 06:50:27;;;;;;;20.13;5.10;;;;;;;15.46;68.38;93085.50;5009014;28;21015;-76
2023/10/26 06:52:54;;;;;;;23.25;5.10;;;;;;;15.45;68.38;93081.25;4989441;28;20187;-77
2023/10/26 06:55:22;;;;;;;16.77;4.63;;;;;;;15.23;68.54;93076.69;5006132;28;20042;-76
2023/10/26 06:57:47;;;;;;;16.10;4.40;;;;;;;15.40;67.93;93078.13;5008103;28;20719;-76
2023/10/26 07:00:14;;;;;;;19.27;4.25;;;;;;;15.48;68.06;93100.44;4993240;28;20041;-77
2023/10/26 07:02:39;;;;;;;10.52;4.40;;;;;;;15.40;68.88;93083.47;5009192;28;20045;-77
2023/10/26 07:05:05;;;;;;;15.23;4.18;;;;;;;15.24;69.93;93091.66;5007056;28;20399;-77
2023/10/26 07:07:40;;;;;;;17.70;4.35;;;;;;;15.48;69.38;93087.03;4987064;28;20041;-76
2023/10/26 07:10:07;;;;;;;20.30;5.60;;;;;;;15.42;68.99;93092.69;4988825;28;20052;-78
2023/10/26 07:12:34;;;;;;;17.60;5.57;;;;;;;15.41;69.80;93091.13;5009131;28;20399;-77
2023/10/26 07:14:59;;;;;;;14.93;4.40;;;;;;;15.37;69.51;93068.88;5008900;28;20142;-77
2023/10/26 07:17:26;;;;;;;17.83;5.00;;;;;;;15.34;70.17;93080.31;5006772;28;20483;-78
2023/10/26 07:19:52;;;;;;;17.00;5.03;;;;;;;15.42;70.03;93081.19;5011145;28;20032;-78
2023/10/26 07:22:17;;;;;;;11.35;3.50;;;;;;;15.42;68.35;93065.13;5010411;28;20461;-75
2023/10/26 07:24:43;;;;;;;18.98;4.72;;;;;;;15.46;69.14;93090.06;4994098;28;20029;-75
2023/10/26 07:27:09;;;;;;;17.20;5.00;;;;;;;15.58;68.96;93094.47;4990958;28;20076;-74
2023/10/26 07:29:34;;;;;;;13.30;4.82;;;;;;;15.73;70.24;93088.19;5008327;28;20065;-75
2023/10/26 07:31:59;;;;;;;18.65;4.68;;;;;;;15.29;69.10;93069.91;5007587;28;20132;-75
2023/10/26 07:34:25;;;;;;;25.23;4.85;;;;;;;15.17;70.55;93072.78;4994097;28;20136;-77
2023/10/26 07:36:52;;;;;;;29.45;4.55;;;;;;;15.33;70.77;93084.13;4985891;28;20127;-77
2023/10/26 07:39:17;;;;;;;27.55;5.72;;;;;;;15.11;71.43;93060.81;5009263;28;20144;-77
2023/10/26 07:41:43;;;;;;;16.13;5.40;;;;;;;15.08;69.06;93029.41;4984963;28;20084;-74
2023/10/26 07:44:10;;;;;;;19.25;6.25;;;;;;;15.00;70.34;93054.53;5007804;28;20597;-77
2023/10/26 07:46:35;;;;;;;15.65;5.40;;;;;;;14.37;69.84;93054.19;4983984;28;20037;-77
2023/10/26 07:49:03;;;;;;;16.85;6.68;;;;;;;14.73;71.06;93050.25;5009996;28;20404;-77
2023/10/26 07:51:30;;;;;;;25.27;7.97;;;;;;;14.71;71.06;93052.53;5007278;28;20115;-77
2023/10/26 07:53:56;;;;;;;16.23;6.78;;;;;;;14.57;72.57;93036.97;5003613;28;20029;-78
2023/10/26 07:56:21;;;;;;;23.65;8.07;;;;;;;14.67;72.82;93031.03;5009457;28;20052;-78
2023/10/26 07:58:47;;;;;;;24.27;7.57;;;;;;;14.61;70.25;93043.19;5005032;28;20025;-75
2023/10/26 08:01:12;;;;;;;20.25;6.88;;;;;;;14.46;71.65;93031.44;5009288;28;20171;-78
2023/10/26 08:03:38;;;;;;;19.70;5.25;;;;;;;14.91;72.64;93029.91;5005684;28;20099;-77
2023/10/26 08:06:06;;;;;;;21.15;4.55;;;;;;;15.17;70.34;93040.63;5008783;28;20424;-78
2023/10/26 08:08:35;;;;;;;19.42;5.25;;;;;;;15.11;67.51;93038.63;5005612;28;20047;-77
2023/10/26 08:11:11;;;;;;;25.48;6.03;;;;;;;15.39;67.80;93045.19;4990428;28;20087;-78
2023/10/26 08:13:37;;;;;;;19.90;5.25;;;;;;;15.64;68.35;93034.84;4992112;28;21086;-78
2023/10/26 08:16:03;;;;;;;11.13;3.22;;;;;;;15.81;61.47;93028.16;5006971;28;20605;-78
2023/10/26 08:18:31;;;;;;;12.50;4.15;;;;;;;15.73;59.52;93037.25;4990808;28;20029;-77
2023/10/26 08:20:56;;;;;;;14.55;3.50;;;;;;;15.76;56.22;93026.56;5007147;28;20236;-77
2023/10/26 08:23:22;;;;;;;24.33;4.50;;;;;;;15.82;58.19;93035.84;5010048;28;20098;-77
2023/10/26 08:25:48;;;;;;;9.88;3.58;;;;;;;15.93;56.30;93017.19;5007660;28;20059;-76
2023/10/26 08:28:17;;;;;;;11.07;3.33;;;;;;;15.93;55.04;93003.78;5012425;28;20474;-76
2023/10/26 08:30:43;;;;;;;14.20;4.13;;;;;;;16.04;55.20;92993.94;5011456;28;20055;-77
2023/10/26 08:33:09;;;;;;;17.40;3.38;;;;;;;15.86;54.34;92952.75;5011311;28;20033;-76
2023/10/26 08:35:35;;;;;;;14.85;3.63;;;;;;;16.28;54.95;92998.78;5006898;28;20045;-77
2023/10/26 08:38:03;;;;;;;11.65;2.60;;;;;;;16.26;53.19;92987.69;5012476;28;20048;-76
2023/10/26 08:40:28;;;;;;;8.52;2.95;;;;;;;16.27;56.19;92986.53;4989483;28;20029;-77
2023/10/26 08:42:55;;;;;;;10.68;2.88;;;;;;;16.34;52.35;92975.13;5012202;28;20036;-77
2023/10/26 08:45:23;;;;;;;15.88;3.35;;;;;;;16.38;53.74;92988.59;4991321;28;20033;-77
2023/10/26 08:47:50;;;;;;;13.38;3.53;;;;;;;16.35;53.32;92976.66;5008259;28;20565;-77
2023/10/26 08:50:21;;;;;;;17.80;3.38;;;;;;;16.55;52.13;92985.28;5011171;28;20140;-76
2023/10/26 08:52:47;;;;;;;10.38;3.33;;;;;;;16.64;50.24;92972.31;5011168;28;20033;-77
2023/10/26 08:55:13;;;;;;;11.98;3.13;;;;;;;16.59;50.63;92956.56;5010655;28;20164;-77
2023/10/26 08:57:51;;;;;;;16.23;3.55;;;;;;;16.49;50.43;92965.28;5011682;28;20034;-78
2023/10/26 09:00:18;;;;;;;12.45;2.67;;;;;;;16.46;50.27;92958.00;4990240;28;20034;-76
2023/10/26 09:02:45;;;;;;;14.95;3.00;;;;;;;16.47;50.56;92946.91;5011055;28;20120;-76
2023/10/26 09:05:11;;;;;;;14.40;2.40;;;;;;;16.40;49.41;92924.56;4978570;28;20633;-78
2023/10/26 09:07:39;;;;;;;24.38;3.22;;;;;;;16.51;50.33;92963.03;5007783;28;20068;-76
2023/10/26 09:10:05;;;;;;;14.70;2.35;;;;;;;16.37;50.59;92942.19;5009735;28;20467;-77
2023/10/26 09:12:30;;;;;;;15.05;2.45;;;;;;;16.59;49.71;92959.25;5007830;28;20086;-79
2023/10/26 09:15:06;;;;;;;9.52;2.40;;;;;;;16.61;50.40;92932.81;5009254;28;20076;-78
2023/10/26 09:17:33;;;;;;;9.68;1.95;;;;;;;16.66;49.63;92946.66;5005807;28;20705;-77
2023/10/26 09:20:17;;;;;;;6.00;2.25;;;;;;;16.85;48.37;92939.50;5010568;28;20025;-77
2023/10/26 09:22:42;;;;;;;9.80;2.28;;;;;;;17.08;47.38;92954.25;4989378;28;20280;-78
2023/10/26 09:25:10;;;;;;;10.98;2.47;;;;;;;17.10;47.23;92935.84;5009542;28;20562;-77
2023/10/26 09:27:36;;;;;;;11.68;2.85;;;;;;;17.17;47.16;92948.56;4991668;28;20096;-77
2023/10/26 09:30:02;;;;;;;7.13;2.28;;;;;;;17.26;46.95;92950.94;5008706;28;20108;-77
2023/10/26 09:32:35;;;;;;;9.25;1.67;;;;;;;17.04;46.25;92918.53;5007403;28;20172;-76
2023/10/26 09:35:03;;;;;;;8.82;2.20;;;;;;;17.26;47.97;92932.13;4996404;28;20033;-77
2023/10/26 09:37:29;;;;;;;13.05;4.18;;;;;;;17.18;46.91;92915.97;5006299;28;20041;-76
2023/10/26 09:39:55;;;;;;;5.55;1.80;;;;;;;17.35;46.86;92943.31;4990950;28;20066;-77
2023/10/26 09:42:21;;;;;;;5.55;1.90;;;;;;;17.33;46.69;92932.16;5010098;28;20045;-77
2023/10/26 09:44:46;;;;;;;13.15;2.53;;;;;;;17.35;45.90;92924.50;5009504;28;20045;-77
2023/10/26 09:47:12;;;;;;;4.50;1.45;;;;;;;17.61;46.25;92938.44;5007125;28;20398;-77
2023/10/26 09:49:38;;;;;;;5.35;1.38;;;;;;;17.66;46.24;92939.22;5009763;28;20021;-77
2023/10/26 09:52:04;;;;;;;11.15;1.88;;;;;;;17.80;45.45;92928.50;4989959;28;20416;-78
2023/10/26 09:54:35;;;;;;;5.93;1.40;;;;;;;17.85;43.73;92928.91;5000928;28;20088;-76
2023/10/26 09:57:09;;;;;;;10.00;1.88;;;;;;;17.79;43.91;92921.63;5010533;28;20519;-77
2023/10/26 09:59:36;;;;;;;10.93;1.73;;;;;;;17.81;43.96;92914.69;5000420;28;20117;-77
2023/10/26 10:02:19;;;;;;;10.93;1.80;;;;;;;17.77;43.75;92918.53;5007007;28;20041;-77
2023/10/26 10:04:45;;;;;;;6.90;1.42;;;;;;;17.66;44.75;92893.50;5009595;28;20094;-77
2023/10/26 10:07:35;;;;;;;7.50;2.65;;;;;;;17.57;44.46;92878.50;4990980;28;20563;-77
2023/10/26 10:10:01;;;;;;;5.03;1.38;;;;;;;17.77;43.59;92889.72;5007465;28;20712;-77
2023/10/26 10:12:26;;;;;;;8.02;1.63;;;;;;;17.84;44.99;92903.19;5009936;28;20076;-78
2023/10/26 10:14:51;;;;;;;9.55;1.45;;;;;;;17.88;44.19;92903.19;5008737;28;20508;-77
2023/10/26 10:17:22;;;;;;;8.80;1.42;;;;;;;17.70;44.93;92876.25;4991500;28;20459;-76
2023/10/26 10:20:16;;;;;;;9.68;1.77;;;;;;;17.97;44.89;92890.97;4990243;28;20111;-78
2023/10/26 10:22:48;;;;;;;8.17;2.30;;;;;;;17.97;44.43;92900.94;5008757;28;20084;-78
2023/10/26 10:25:17;;;;;;;5.45;2.22;;;;;;;17.99;44.00;92869.06;5006743;28;20033;-77
2023/10/26 10:27:49;;;;;;;9.38;2.40;;;;;;;18.13;43.47;92879.06;5003916;28;20147;-77
2023/10/26 10:30:18;;;;;;;4.95;1.63;;;;;;;18.24;44.84;92883.28;5009783;28;20038;-77
2023/10/26 10:35:13;;;;;;;12.18;1.95;;;;;;;18.09;44.72;92884.44;5004044;28;20029;-78
2023/10/26 10:37:38;;;;;;;11.25;2.13;;;;;;;18.28;45.54;92907.53;5008382;28;20036;-78
2023/10/26 10:40:13;;;;;;;8.70;2.03;;;;;;;18.45;43.84;92888.69;5006322;28;20037;-78
2023/10/26 10:42:40;;;;;;;4.88;1.50;;;;;;;18.59;44.05;92893.31;5009595;28;20042;-77
2023/10/26 10:45:12;;;;;;;10.88;2.47;;;;;;;18.66;43.64;92871.78;5008105;28;20048;-77
2023/10/26 10:47:42;;;;;;;5.35;1.77;;;;;;;18.76;43.60;92881.03;5008072;28;20045;-77
2023/10/26 10:50:22;;;;;;;7.85;1.85;;;;;;;18.80;44.86;92890.66;4987657;28;20375;-78
2023/10/26 10:52:53;;;;;;;6.90;2.63;;;;;;;18.84;43.87;92877.94;5009890;28;20354;-79
2023/10/26 10:55:26;;;;;;;8.30;1.90;;;;;;;18.91;44.86;92871.78;4989949;28;20100;-77
2023/10/26 10:58:00;;;;;;;13.23;2.70;;;;;;;18.94;44.80;92873.69;5008798;28;20226;-77
2023/10/26 11:00:48;;;;;;;5.43;1.83;;;;;;;19.06;44.69;92872.53;5008027;28;20029;-78
2023/10/26 11:03:21;;;;;;;4.65;2.13;;;;;;;19.16;46.15;92871.72;5006899;28;20045;-77
2023/10/26 11:05:47;;;;;;;6.20;2.45;;;;;;;19.12;45.69;92881.72;5008865;28;20049;-77
2023/10/26 11:08:13;;;;;;;8.27;2.45;;;;;;;19.27;45.29;92878.59;5007931;28;20360;-77
2023/10/26 11:10:39;;;;;;;5.30;2.42;;;;;;;19.20;43.92;92872.47;5010458;28;20076;-78
2023/10/26 11:13:05;;;;;;;10.30;2.15;;;;;;;19.10;44.58;92867.88;5008096;28;20045;-78
2023/10/26 11:15:36;;;;;;;9.20;2.08;;;;;;;19.22;44.57;92880.94;4980357;28;20053;-77
2023/10/26 11:18:03;;;;;;;10.88;2.28;;;;;;;19.12;44.72;92870.94;4989255;28;20535;-78
2023/10/26 11:20:37;;;;;;;11.60;2.63;;;;;;;19.20;45.30;92878.66;5006700;28;20153;-77
2023/10/26 11:23:09;;;;;;;6.97;2.83;;;;;;;19.04;46.49;92847.88;5007910;28;20037;-77
2023/10/26 11:25:34;;;;;;;7.65;2.40;;;;;;;19.17;45.21;92863.22;4989806;28;20033;-79
2023/10/26 11:28:00;;;;;;;13.57;2.85;;;;;;;19.26;45.12;92870.94;5008144;28;20614;-77